sensor_id;sensor_type;location;lat;lon;timestamp;P1;durP1;ratioP1;P2;durP2;ratioP2
58091;SDS011;43896;48.178;11.578;2023-07-28T00:01:32;4.72;;;2.60;;
58091;SDS011;43896;48.178;11.578;2023-07-28T00:03:58;5.03;;;2.40;;
58091;SDS011;43896;48.178;11.578;2023-07-28T00:06:27;5.65;;;2.78;;
58091;SDS011;43896;48.178;11.578;2023-07-28T00:08:53;5.05;;;2.58;;
58091;SDS011;43896;48.178;11.578;2023-07-28T00:11:21;4.55;;;2.45;;
58091;SDS011;43896;48.178;11.578;2023-07-28T00:13:46;5.13;;;2.75;;
58091;SDS011;43896;48.178;11.578;2023-07-28T00:16:12;6.15;;;2.95;;
58091;SDS011;43896;48.178;11.578;2023-07-28T00:18:42;4.50;;;2.35;;
58091;SDS011;43896;48.178;11.578;2023-07-28T00:21:08;4.25;;;2.45;;
58091;SDS011;43896;48.178;11.578;2023-07-28T00:23:36;4.78;;;2.60;;
58091;SDS011;43896;48.178;11.578;2023-07-28T00:26:01;5.95;;;2.60;;
58091;SDS011;43896;48.178;11.578;2023-07-28T00:28:27;6.35;;;2.97;;
58091;SDS011;43896;48.178;11.578;2023-07-28T00:30:55;5.28;;;2.78;;
58091;SDS011;43896;48.178;11.578;2023-07-28T00:33:23;4.65;;;2.50;;
58091;SDS011;43896;48.178;11.578;2023-07-28T00:35:49;4.85;;;2.60;;
58091;SDS011;43896;48.178;11.578;2023-07-28T00:38:14;5.22;;;2.70;;
58091;SDS011;43896;48.178;11.578;2023-07-28T00:40:40;4.80;;;2.65;;
58091;SDS011;43896;48.178;11.578;2023-07-28T00:43:08;5.63;;;2.53;;
58091;SDS011;43896;48.178;11.578;2023-07-28T00:45:33;5.50;;;2.92;;
58091;SDS011;43896;48.178;11.578;2023-07-28T00:48:01;5.60;;;2.65;;
58091;SDS011;43896;48.178;11.578;2023-07-28T00:50:27;5.78;;;3.13;;
58091;SDS011;43896;48.178;11.578;2023-07-28T00:52:56;5.10;;;2.63;;
58091;SDS011;43896;48.178;11.578;2023-07-28T00:55:22;7.07;;;2.78;;
58091;SDS011;43896;48.178;11.578;2023-07-28T00:57:47;4.25;;;2.33;;
58091;SDS011;43896;48.178;11.578;2023-07-28T01:00:13;5.82;;;2.88;;
58091;SDS011;43896;48.178;11.578;2023-07-28T01:02:41;5.35;;;2.97;;
58091;SDS011;43896;48.178;11.578;2023-07-28T01:05:07;6.25;;;2.90;;
58091;SDS011;43896;48.178;11.578;2023-07-28T01:10:22;5.28;;;2.92;;
58091;SDS011;43896;48.178;11.578;2023-07-28T01:12:51;6.13;;;2.88;;
58091;SDS011;43896;48.178;11.578;2023-07-28T01:15:16;5.15;;;2.90;;
58091;SDS011;43896;48.178;11.578;2023-07-28T01:17:42;4.68;;;2.67;;
58091;SDS011;43896;48.178;11.578;2023-07-28T01:20:08;6.38;;;2.90;;
58091;SDS011;43896;48.178;11.578;2023-07-28T01:22:40;4.70;;;2.67;;
58091;SDS011;43896;48.178;11.578;2023-07-28T01:25:49;5.75;;;2.70;;
58091;SDS011;43896;48.178;11.578;2023-07-28T01:28:23;7.03;;;3.30;;
58091;SDS011;43896;48.178;11.578;2023-07-28T01:30:49;5.85;;;3.38;;
58091;SDS011;43896;48.178;11.578;2023-07-28T01:33:14;6.35;;;3.20;;
58091;SDS011;43896;48.178;11.578;2023-07-28T01:35:42;6.25;;;3.00;;
58091;SDS011;43896;48.178;11.578;2023-07-28T01:38:07;6.30;;;3.58;;
58091;SDS011;43896;48.178;11.578;2023-07-28T01:40:33;6.97;;;3.25;;
58091;SDS011;43896;48.178;11.578;2023-07-28T01:42:58;6.72;;;2.90;;
58091;SDS011;43896;48.178;11.578;2023-07-28T01:45:24;5.38;;;2.95;;
58091;SDS011;43896;48.178;11.578;2023-07-28T01:47:49;7.28;;;3.40;;
58091;SDS011;43896;48.178;11.578;2023-07-28T01:50:15;6.20;;;2.90;;
58091;SDS011;43896;48.178;11.578;2023-07-28T01:52:40;6.05;;;2.90;;
58091;SDS011;43896;48.178;11.578;2023-07-28T01:55:06;6.35;;;2.85;;
58091;SDS011;43896;48.178;11.578;2023-07-28T01:57:38;5.75;;;2.80;;
58091;SDS011;43896;48.178;11.578;2023-07-28T02:00:07;5.72;;;2.88;;
58091;SDS011;43896;48.178;11.578;2023-07-28T02:02:33;5.40;;;2.63;;
58091;SDS011;43896;48.178;11.578;2023-07-28T02:04:58;5.85;;;2.45;;
58091;SDS011;43896;48.178;11.578;2023-07-28T02:07:23;4.88;;;2.10;;
58091;SDS011;43896;48.178;11.578;2023-07-28T02:09:54;6.13;;;2.50;;
58091;SDS011;43896;48.178;11.578;2023-07-28T02:12:22;5.35;;;2.40;;
58091;SDS011;43896;48.178;11.578;2023-07-28T02:14:50;5.20;;;2.42;;
58091;SDS011;43896;48.178;11.578;2023-07-28T02:17:16;4.88;;;2.50;;
58091;SDS011;43896;48.178;11.578;2023-07-28T02:19:43;4.95;;;2.53;;
58091;SDS011;43896;48.178;11.578;2023-07-28T02:22:09;4.47;;;2.30;;
58091;SDS011;43896;48.178;11.578;2023-07-28T02:24:37;4.97;;;2.25;;
58091;SDS011;43896;48.178;11.578;2023-07-28T02:27:05;5.32;;;2.33;;
58091;SDS011;43896;48.178;11.578;2023-07-28T02:29:33;4.93;;;2.03;;
58091;SDS011;43896;48.178;11.578;2023-07-28T02:32:01;4.75;;;2.33;;
58091;SDS011;43896;48.178;11.578;2023-07-28T02:34:26;4.97;;;2.75;;
58091;SDS011;43896;48.178;11.578;2023-07-28T02:36:57;4.68;;;2.22;;
58091;SDS011;43896;48.178;11.578;2023-07-28T02:39:25;4.65;;;2.20;;
58091;SDS011;43896;48.178;11.578;2023-07-28T02:41:52;4.28;;;2.28;;
58091;SDS011;43896;48.178;11.578;2023-07-28T02:44:25;4.00;;;1.90;;
58091;SDS011;43896;48.178;11.578;2023-07-28T02:46:51;3.92;;;2.13;;
58091;SDS011;43896;48.178;11.578;2023-07-28T02:49:18;4.95;;;2.40;;
58091;SDS011;43896;48.178;11.578;2023-07-28T02:51:49;4.00;;;2.10;;
58091;SDS011;43896;48.178;11.578;2023-07-28T02:54:17;4.60;;;2.20;;
58091;SDS011;43896;48.178;11.578;2023-07-28T02:56:48;5.63;;;2.13;;
58091;SDS011;43896;48.178;11.578;2023-07-28T02:59:16;5.07;;;2.13;;
58091;SDS011;43896;48.178;11.578;2023-07-28T03:01:42;4.15;;;1.90;;
58091;SDS011;43896;48.178;11.578;2023-07-28T03:04:10;4.95;;;2.20;;
58091;SDS011;43896;48.178;11.578;2023-07-28T03:06:38;4.30;;;2.05;;
58091;SDS011;43896;48.178;11.578;2023-07-28T03:09:03;4.80;;;2.25;;
58091;SDS011;43896;48.178;11.578;2023-07-28T03:11:29;4.53;;;2.40;;
58091;SDS011;43896;48.178;11.578;2023-07-28T03:13:57;5.35;;;2.50;;
58091;SDS011;43896;48.178;11.578;2023-07-28T03:16:22;5.30;;;2.20;;
58091;SDS011;43896;48.178;11.578;2023-07-28T03:18:55;6.30;;;2.20;;
58091;SDS011;43896;48.178;11.578;2023-07-28T03:21:23;4.72;;;2.00;;
58091;SDS011;43896;48.178;11.578;2023-07-28T03:23:48;4.68;;;2.00;;
58091;SDS011;43896;48.178;11.578;2023-07-28T03:26:14;4.80;;;2.10;;
58091;SDS011;43896;48.178;11.578;2023-07-28T03:28:41;4.68;;;2.20;;
58091;SDS011;43896;48.178;11.578;2023-07-28T03:31:17;4.13;;;1.90;;
58091;SDS011;43896;48.178;11.578;2023-07-28T03:33:44;3.80;;;2.00;;
58091;SDS011;43896;48.178;11.578;2023-07-28T03:36:10;4.60;;;2.22;;
58091;SDS011;43896;48.178;11.578;2023-07-28T03:38:38;6.10;;;2.50;;
58091;SDS011;43896;48.178;11.578;2023-07-28T03:41:03;3.92;;;2.13;;
58091;SDS011;43896;48.178;11.578;2023-07-28T03:43:31;5.35;;;2.33;;
58091;SDS011;43896;48.178;11.578;2023-07-28T03:46:01;4.82;;;2.00;;
58091;SDS011;43896;48.178;11.578;2023-07-28T03:48:26;4.88;;;1.90;;
58091;SDS011;43896;48.178;11.578;2023-07-28T03:50:54;4.80;;;2.22;;
58091;SDS011;43896;48.178;11.578;2023-07-28T03:53:20;4.00;;;2.03;;
58091;SDS011;43896;48.178;11.578;2023-07-28T03:55:45;5.00;;;2.08;;
58091;SDS011;43896;48.178;11.578;2023-07-28T03:58:13;4.03;;;2.10;;
58091;SDS011;43896;48.178;11.578;2023-07-28T04:00:38;5.45;;;2.10;;
58091;SDS011;43896;48.178;11.578;2023-07-28T04:03:04;4.60;;;2.15;;
58091;SDS011;43896;48.178;11.578;2023-07-28T04:05:29;4.47;;;2.03;;
58091;SDS011;43896;48.178;11.578;2023-07-28T04:07:55;5.00;;;2.10;;
58091;SDS011;43896;48.178;11.578;2023-07-28T04:10:20;5.60;;;2.40;;
58091;SDS011;43896;48.178;11.578;2023-07-28T04:12:47;4.85;;;2.30;;
58091;SDS011;43896;48.178;11.578;2023-07-28T04:15:15;4.65;;;2.10;;
58091;SDS011;43896;48.178;11.578;2023-07-28T04:17:40;4.60;;;2.10;;
58091;SDS011;43896;48.178;11.578;2023-07-28T04:20:06;4.30;;;2.20;;
58091;SDS011;43896;48.178;11.578;2023-07-28T04:22:31;4.65;;;2.00;;
58091;SDS011;43896;48.178;11.578;2023-07-28T04:24:59;5.30;;;2.00;;
58091;SDS011;43896;48.178;11.578;2023-07-28T04:27:28;4.32;;;1.90;;
58091;SDS011;43896;48.178;11.578;2023-07-28T04:30:01;4.82;;;2.03;;
58091;SDS011;43896;48.178;11.578;2023-07-28T04:32:26;4.80;;;2.00;;
58091;SDS011;43896;48.178;11.578;2023-07-28T04:34:52;5.20;;;2.00;;
58091;SDS011;43896;48.178;11.578;2023-07-28T04:37:20;4.78;;;2.10;;
58091;SDS011;43896;48.178;11.578;2023-07-28T04:39:46;4.18;;;2.20;;
58091;SDS011;43896;48.178;11.578;2023-07-28T04:42:11;5.05;;;2.20;;
58091;SDS011;43896;48.178;11.578;2023-07-28T04:44:40;5.18;;;2.70;;
58091;SDS011;43896;48.178;11.578;2023-07-28T04:47:05;8.98;;;2.53;;
58091;SDS011;43896;48.178;11.578;2023-07-28T04:49:33;4.78;;;2.30;;
58091;SDS011;43896;48.178;11.578;2023-07-28T04:52:00;6.38;;;2.67;;
58091;SDS011;43896;48.178;11.578;2023-07-28T04:54:25;4.72;;;2.17;;
58091;SDS011;43896;48.178;11.578;2023-07-28T04:56:51;4.50;;;2.10;;
58091;SDS011;43896;48.178;11.578;2023-07-28T04:59:18;4.63;;;2.20;;
58091;SDS011;43896;48.178;11.578;2023-07-28T05:01:46;6.38;;;2.50;;
58091;SDS011;43896;48.178;11.578;2023-07-28T05:04:13;4.68;;;1.90;;
58091;SDS011;43896;48.178;11.578;2023-07-28T05:06:39;4.35;;;2.10;;
58091;SDS011;43896;48.178;11.578;2023-07-28T05:09:04;4.88;;;2.03;;
58091;SDS011;43896;48.178;11.578;2023-07-28T05:11:29;4.53;;;1.90;;
58091;SDS011;43896;48.178;11.578;2023-07-28T05:13:55;5.05;;;2.17;;
58091;SDS011;43896;48.178;11.578;2023-07-28T05:16:20;5.30;;;2.10;;
58091;SDS011;43896;48.178;11.578;2023-07-28T05:18:48;5.13;;;2.00;;
58091;SDS011;43896;48.178;11.578;2023-07-28T05:21:22;4.45;;;2.00;;
58091;SDS011;43896;48.178;11.578;2023-07-28T05:23:54;4.22;;;2.00;;
58091;SDS011;43896;48.178;11.578;2023-07-28T05:26:25;4.72;;;1.98;;
58091;SDS011;43896;48.178;11.578;2023-07-28T05:28:51;4.30;;;2.20;;
58091;SDS011;43896;48.178;11.578;2023-07-28T05:31:16;4.70;;;2.00;;
58091;SDS011;43896;48.178;11.578;2023-07-28T05:33:41;4.05;;;2.05;;
58091;SDS011;43896;48.178;11.578;2023-07-28T05:36:12;3.65;;;1.83;;
58091;SDS011;43896;48.178;11.578;2023-07-28T05:38:38;6.90;;;2.20;;
58091;SDS011;43896;48.178;11.578;2023-07-28T05:46:30;5.50;;;2.20;;
58091;SDS011;43896;48.178;11.578;2023-07-28T05:48:56;4.15;;;1.98;;
58091;SDS011;43896;48.178;11.578;2023-07-28T05:51:21;4.30;;;1.85;;
58091;SDS011;43896;48.178;11.578;2023-07-28T05:53:47;4.10;;;1.95;;
58091;SDS011;43896;48.178;11.578;2023-07-28T05:56:13;3.47;;;1.85;;
58091;SDS011;43896;48.178;11.578;2023-07-28T05:58:38;5.00;;;2.42;;
58091;SDS011;43896;48.178;11.578;2023-07-28T06:01:04;5.35;;;2.10;;
58091;SDS011;43896;48.178;11.578;2023-07-28T06:03:30;4.68;;;2.30;;
58091;SDS011;43896;48.178;11.578;2023-07-28T06:05:55;4.80;;;2.03;;
58091;SDS011;43896;48.178;11.578;2023-07-28T06:08:21;4.50;;;2.50;;
58091;SDS011;43896;48.178;11.578;2023-07-28T06:10:46;5.80;;;2.13;;
58091;SDS011;43896;48.178;11.578;2023-07-28T06:13:12;6.50;;;2.20;;
58091;SDS011;43896;48.178;11.578;2023-07-28T06:15:41;4.53;;;1.90;;
58091;SDS011;43896;48.178;11.578;2023-07-28T06:18:07;5.95;;;2.20;;
58091;SDS011;43896;48.178;11.578;2023-07-28T06:20:32;5.60;;;1.90;;
58091;SDS011;43896;48.178;11.578;2023-07-28T06:23:06;4.88;;;2.38;;
58091;SDS011;43896;48.178;11.578;2023-07-28T06:25:32;5.15;;;2.10;;
58091;SDS011;43896;48.178;11.578;2023-07-28T06:28:01;4.45;;;2.22;;
58091;SDS011;43896;48.178;11.578;2023-07-28T06:30:29;3.50;;;1.83;;
58091;SDS011;43896;48.178;11.578;2023-07-28T06:33:01;4.20;;;2.10;;
58091;SDS011;43896;48.178;11.578;2023-07-28T06:35:28;4.32;;;2.10;;
58091;SDS011;43896;48.178;11.578;2023-07-28T06:37:53;4.10;;;2.03;;
58091;SDS011;43896;48.178;11.578;2023-07-28T06:40:19;4.47;;;2.00;;
58091;SDS011;43896;48.178;11.578;2023-07-28T06:42:45;4.22;;;2.08;;
58091;SDS011;43896;48.178;11.578;2023-07-28T06:45:11;4.65;;;2.13;;
58091;SDS011;43896;48.178;11.578;2023-07-28T06:47:39;4.55;;;2.33;;
58091;SDS011;43896;48.178;11.578;2023-07-28T06:50:05;4.03;;;1.92;;
58091;SDS011;43896;48.178;11.578;2023-07-28T06:52:31;5.10;;;2.05;;
58091;SDS011;43896;48.178;11.578;2023-07-28T06:54:56;4.47;;;2.17;;
58091;SDS011;43896;48.178;11.578;2023-07-28T06:57:22;3.85;;;1.80;;
58091;SDS011;43896;48.178;11.578;2023-07-28T06:59:47;4.03;;;1.90;;
58091;SDS011;43896;48.178;11.578;2023-07-28T07:02:13;4.18;;;1.98;;
58091;SDS011;43896;48.178;11.578;2023-07-28T07:04:39;4.50;;;1.80;;
58091;SDS011;43896;48.178;11.578;2023-07-28T07:07:04;4.25;;;2.22;;
58091;SDS011;43896;48.178;11.578;2023-07-28T07:09:30;5.13;;;2.20;;
58091;SDS011;43896;48.178;11.578;2023-07-28T07:11:55;4.78;;;2.00;;
58091;SDS011;43896;48.178;11.578;2023-07-28T07:14:21;4.75;;;2.03;;
58091;SDS011;43896;48.178;11.578;2023-07-28T07:16:46;5.63;;;2.20;;
58091;SDS011;43896;48.178;11.578;2023-07-28T07:19:11;3.35;;;1.80;;
58091;SDS011;43896;48.178;11.578;2023-07-28T07:21:38;6.00;;;2.20;;
58091;SDS011;43896;48.178;11.578;2023-07-28T07:24:04;4.05;;;1.90;;
58091;SDS011;43896;48.178;11.578;2023-07-28T07:26:29;3.75;;;1.75;;
58091;SDS011;43896;48.178;11.578;2023-07-28T07:28:56;4.05;;;1.92;;
58091;SDS011;43896;48.178;11.578;2023-07-28T07:31:22;6.03;;;2.00;;
58091;SDS011;43896;48.178;11.578;2023-07-28T07:33:48;3.97;;;2.10;;
58091;SDS011;43896;48.178;11.578;2023-07-28T07:36:17;4.18;;;2.08;;
58091;SDS011;43896;48.178;11.578;2023-07-28T07:38:43;5.10;;;2.20;;
58091;SDS011;43896;48.178;11.578;2023-07-28T07:41:12;5.75;;;1.92;;
58091;SDS011;43896;48.178;11.578;2023-07-28T07:43:41;3.63;;;2.03;;
58091;SDS011;43896;48.178;11.578;2023-07-28T07:46:06;5.30;;;2.20;;
58091;SDS011;43896;48.178;11.578;2023-07-28T07:48:32;5.65;;;2.33;;
58091;SDS011;43896;48.178;11.578;2023-07-28T07:50:57;4.15;;;2.17;;
58091;SDS011;43896;48.178;11.578;2023-07-28T07:53:23;3.72;;;2.00;;
58091;SDS011;43896;48.178;11.578;2023-07-28T07:55:49;3.78;;;1.88;;
58091;SDS011;43896;48.178;11.578;2023-07-28T07:58:14;4.60;;;2.03;;
58091;SDS011;43896;48.178;11.578;2023-07-28T08:00:40;4.82;;;1.90;;
58091;SDS011;43896;48.178;11.578;2023-07-28T08:03:05;4.18;;;2.00;;
58091;SDS011;43896;48.178;11.578;2023-07-28T08:05:31;4.28;;;2.08;;
58091;SDS011;43896;48.178;11.578;2023-07-28T08:07:56;3.50;;;1.90;;
58091;SDS011;43896;48.178;11.578;2023-07-28T08:10:22;3.70;;;1.90;;
58091;SDS011;43896;48.178;11.578;2023-07-28T08:12:48;4.63;;;1.80;;
58091;SDS011;43896;48.178;11.578;2023-07-28T08:15:13;4.32;;;2.10;;
58091;SDS011;43896;48.178;11.578;2023-07-28T08:17:39;5.32;;;1.83;;
58091;SDS011;43896;48.178;11.578;2023-07-28T08:20:05;4.32;;;1.70;;
58091;SDS011;43896;48.178;11.578;2023-07-28T08:22:34;3.20;;;1.77;;
58091;SDS011;43896;48.178;11.578;2023-07-28T08:25:08;4.20;;;1.85;;
58091;SDS011;43896;48.178;11.578;2023-07-28T08:27:37;4.40;;;2.10;;
58091;SDS011;43896;48.178;11.578;2023-07-28T08:30:03;3.90;;;2.00;;
58091;SDS011;43896;48.178;11.578;2023-07-28T08:32:28;4.45;;;2.15;;
58091;SDS011;43896;48.178;11.578;2023-07-28T08:34:54;3.90;;;1.90;;
58091;SDS011;43896;48.178;11.578;2023-07-28T08:37:19;3.47;;;1.80;;
58091;SDS011;43896;48.178;11.578;2023-07-28T08:39:45;3.22;;;1.63;;
58091;SDS011;43896;48.178;11.578;2023-07-28T08:42:10;4.55;;;1.73;;
58091;SDS011;43896;48.178;11.578;2023-07-28T08:44:36;3.65;;;1.80;;
58091;SDS011;43896;48.178;11.578;2023-07-28T08:47:04;4.07;;;1.85;;
58091;SDS011;43896;48.178;11.578;2023-07-28T08:49:30;4.55;;;1.70;;
58091;SDS011;43896;48.178;11.578;2023-07-28T08:51:58;5.28;;;2.03;;
58091;SDS011;43896;48.178;11.578;2023-07-28T08:54:24;4.30;;;1.85;;
58091;SDS011;43896;48.178;11.578;2023-07-28T08:56:50;3.67;;;1.70;;
58091;SDS011;43896;48.178;11.578;2023-07-28T08:59:25;3.28;;;1.73;;
58091;SDS011;43896;48.178;11.578;2023-07-28T09:01:56;3.80;;;1.75;;
58091;SDS011;43896;48.178;11.578;2023-07-28T09:04:24;3.42;;;1.75;;
58091;SDS011;43896;48.178;11.578;2023-07-28T09:06:50;3.95;;;1.98;;
58091;SDS011;43896;48.178;11.578;2023-07-28T09:09:16;5.07;;;1.98;;
58091;SDS011;43896;48.178;11.578;2023-07-28T09:14:12;3.88;;;1.73;;
58091;SDS011;43896;48.178;11.578;2023-07-28T09:16:38;4.53;;;1.80;;
58091;SDS011;43896;48.178;11.578;2023-07-28T09:19:05;3.20;;;1.55;;
58091;SDS011;43896;48.178;11.578;2023-07-28T09:21:32;4.07;;;1.52;;
58091;SDS011;43896;48.178;11.578;2023-07-28T09:23:59;4.07;;;1.63;;
58091;SDS011;43896;48.178;11.578;2023-07-28T09:26:30;5.47;;;2.10;;
58091;SDS011;43896;48.178;11.578;2023-07-28T09:29:15;3.60;;;1.60;;
58091;SDS011;43896;48.178;11.578;2023-07-28T09:31:44;5.28;;;1.92;;
58091;SDS011;43896;48.178;11.578;2023-07-28T09:34:22;4.68;;;1.80;;
58091;SDS011;43896;48.178;11.578;2023-07-28T09:36:54;5.00;;;1.90;;
58091;SDS011;43896;48.178;11.578;2023-07-28T09:39:21;4.50;;;1.70;;
58091;SDS011;43896;48.178;11.578;2023-07-28T09:41:46;4.55;;;1.80;;
58091;SDS011;43896;48.178;11.578;2023-07-28T09:44:13;4.65;;;1.80;;
58091;SDS011;43896;48.178;11.578;2023-07-28T09:46:47;3.45;;;1.70;;
58091;SDS011;43896;48.178;11.578;2023-07-28T09:49:15;4.90;;;1.67;;
58091;SDS011;43896;48.178;11.578;2023-07-28T09:51:49;3.60;;;1.90;;
58091;SDS011;43896;48.178;11.578;2023-07-28T09:54:20;3.80;;;1.90;;
58091;SDS011;43896;48.178;11.578;2023-07-28T09:56:53;3.83;;;1.77;;
58091;SDS011;43896;48.178;11.578;2023-07-28T09:59:21;3.63;;;1.90;;
58091;SDS011;43896;48.178;11.578;2023-07-28T10:01:53;4.20;;;1.90;;
58091;SDS011;43896;48.178;11.578;2023-07-28T10:04:18;4.15;;;1.90;;
58091;SDS011;43896;48.178;11.578;2023-07-28T10:06:46;4.28;;;1.98;;
58091;SDS011;43896;48.178;11.578;2023-07-28T10:09:12;3.03;;;1.60;;
58091;SDS011;43896;48.178;11.578;2023-07-28T10:11:41;5.43;;;2.10;;
58091;SDS011;43896;48.178;11.578;2023-07-28T10:14:07;4.88;;;1.90;;
58091;SDS011;43896;48.178;11.578;2023-07-28T10:16:39;4.07;;;1.90;;
58091;SDS011;43896;48.178;11.578;2023-07-28T10:19:05;4.13;;;1.80;;
58091;SDS011;43896;48.178;11.578;2023-07-28T10:21:31;4.10;;;1.70;;
58091;SDS011;43896;48.178;11.578;2023-07-28T10:23:57;4.50;;;2.13;;
58091;SDS011;43896;48.178;11.578;2023-07-28T10:26:39;4.90;;;1.83;;
58091;SDS011;43896;48.178;11.578;2023-07-28T10:29:10;4.40;;;1.92;;
58091;SDS011;43896;48.178;11.578;2023-07-28T10:31:52;3.78;;;1.90;;
58091;SDS011;43896;48.178;11.578;2023-07-28T10:34:19;5.18;;;1.90;;
58091;SDS011;43896;48.178;11.578;2023-07-28T10:36:46;4.28;;;1.90;;
58091;SDS011;43896;48.178;11.578;2023-07-28T10:39:21;4.18;;;2.10;;
58091;SDS011;43896;48.178;11.578;2023-07-28T10:42:05;4.45;;;2.00;;
58091;SDS011;43896;48.178;11.578;2023-07-28T10:44:33;3.78;;;1.80;;
58091;SDS011;43896;48.178;11.578;2023-07-28T10:46:59;5.18;;;1.80;;
58091;SDS011;43896;48.178;11.578;2023-07-28T10:49:26;4.90;;;1.70;;
58091;SDS011;43896;48.178;11.578;2023-07-28T10:51:52;4.88;;;1.90;;
58091;SDS011;43896;48.178;11.578;2023-07-28T10:54:17;3.83;;;1.80;;
58091;SDS011;43896;48.178;11.578;2023-07-28T10:56:45;4.00;;;1.80;;
58091;SDS011;43896;48.178;11.578;2023-07-28T10:59:11;3.92;;;1.75;;
58091;SDS011;43896;48.178;11.578;2023-07-28T11:01:37;4.80;;;1.95;;
58091;SDS011;43896;48.178;11.578;2023-07-28T11:04:07;3.78;;;1.80;;
58091;SDS011;43896;48.178;11.578;2023-07-28T11:06:36;4.55;;;1.73;;
58091;SDS011;43896;48.178;11.578;2023-07-28T11:09:04;5.70;;;2.00;;
58091;SDS011;43896;48.178;11.578;2023-07-28T11:11:31;4.27;;;2.00;;
58091;SDS011;43896;48.178;11.578;2023-07-28T11:13:56;4.28;;;2.00;;
58091;SDS011;43896;48.178;11.578;2023-07-28T11:16:23;6.20;;;1.90;;
58091;SDS011;43896;48.178;11.578;2023-07-28T11:18:48;3.30;;;1.80;;
58091;SDS011;43896;48.178;11.578;2023-07-28T11:21:17;4.45;;;1.90;;
58091;SDS011;43896;48.178;11.578;2023-07-28T11:23:46;4.17;;;2.00;;
58091;SDS011;43896;48.178;11.578;2023-07-28T11:26:11;3.95;;;2.00;;
58091;SDS011;43896;48.178;11.578;2023-07-28T11:28:36;4.60;;;2.15;;
58091;SDS011;43896;48.178;11.578;2023-07-28T11:31:03;4.63;;;2.03;;
58091;SDS011;43896;48.178;11.578;2023-07-28T11:33:29;4.10;;;1.90;;
58091;SDS011;43896;48.178;11.578;2023-07-28T11:35:54;4.25;;;1.80;;
58091;SDS011;43896;48.178;11.578;2023-07-28T11:38:19;4.13;;;2.00;;
58091;SDS011;43896;48.178;11.578;2023-07-28T11:40:45;3.92;;;2.13;;
58091;SDS011;43896;48.178;11.578;2023-07-28T11:43:11;4.18;;;2.00;;
58091;SDS011;43896;48.178;11.578;2023-07-28T11:45:39;4.73;;;1.90;;
58091;SDS011;43896;48.178;11.578;2023-07-28T11:48:05;4.80;;;2.17;;
58091;SDS011;43896;48.178;11.578;2023-07-28T11:50:39;3.83;;;1.77;;
58091;SDS011;43896;48.178;11.578;2023-07-28T11:53:08;3.80;;;1.80;;
58091;SDS011;43896;48.178;11.578;2023-07-28T11:55:35;3.55;;;1.80;;
58091;SDS011;43896;48.178;11.578;2023-07-28T11:58:05;4.65;;;1.92;;
58091;SDS011;43896;48.178;11.578;2023-07-28T12:00:31;4.20;;;2.10;;
58091;SDS011;43896;48.178;11.578;2023-07-28T12:03:04;4.35;;;2.03;;
58091;SDS011;43896;48.178;11.578;2023-07-28T12:05:34;4.15;;;2.10;;
58091;SDS011;43896;48.178;11.578;2023-07-28T12:08:01;4.03;;;1.90;;
58091;SDS011;43896;48.178;11.578;2023-07-28T12:10:28;5.65;;;1.98;;
58091;SDS011;43896;48.178;11.578;2023-07-28T12:12:56;4.72;;;1.90;;
58091;SDS011;43896;48.178;11.578;2023-07-28T12:20:42;5.20;;;1.98;;
58091;SDS011;43896;48.178;11.578;2023-07-28T12:23:19;3.90;;;1.65;;
58091;SDS011;43896;48.178;11.578;2023-07-28T12:25:45;3.72;;;1.98;;
58091;SDS011;43896;48.178;11.578;2023-07-28T12:28:11;4.10;;;1.77;;
58091;SDS011;43896;48.178;11.578;2023-07-28T12:30:37;3.92;;;1.90;;
58091;SDS011;43896;48.178;11.578;2023-07-28T12:33:05;3.60;;;1.80;;
58091;SDS011;43896;48.178;11.578;2023-07-28T12:35:32;4.22;;;2.22;;
58091;SDS011;43896;48.178;11.578;2023-07-28T12:38:02;4.15;;;1.90;;
58091;SDS011;43896;48.178;11.578;2023-07-28T12:40:29;3.47;;;1.77;;
58091;SDS011;43896;48.178;11.578;2023-07-28T12:42:56;4.05;;;1.95;;
58091;SDS011;43896;48.178;11.578;2023-07-28T12:45:21;3.75;;;1.83;;
58091;SDS011;43896;48.178;11.578;2023-07-28T12:47:47;4.88;;;2.30;;
58091;SDS011;43896;48.178;11.578;2023-07-28T12:50:13;5.28;;;2.15;;
58091;SDS011;43896;48.178;11.578;2023-07-28T12:52:38;4.20;;;1.90;;
58091;SDS011;43896;48.178;11.578;2023-07-28T12:55:04;3.47;;;1.70;;
58091;SDS011;43896;48.178;11.578;2023-07-28T12:57:30;4.88;;;2.00;;
58091;SDS011;43896;48.178;11.578;2023-07-28T12:59:56;3.92;;;2.10;;
58091;SDS011;43896;48.178;11.578;2023-07-28T13:02:35;5.20;;;2.40;;
58091;SDS011;43896;48.178;11.578;2023-07-28T13:05:21;4.88;;;2.20;;
58091;SDS011;43896;48.178;11.578;2023-07-28T13:08:09;4.40;;;2.13;;
58091;SDS011;43896;48.178;11.578;2023-07-28T13:10:37;4.18;;;2.03;;
58091;SDS011;43896;48.178;11.578;2023-07-28T13:13:03;5.45;;;2.22;;
58091;SDS011;43896;48.178;11.578;2023-07-28T13:15:28;4.65;;;2.22;;
58091;SDS011;43896;48.178;11.578;2023-07-28T13:17:54;4.60;;;2.40;;
58091;SDS011;43896;48.178;11.578;2023-07-28T13:20:19;4.00;;;2.10;;
58091;SDS011;43896;48.178;11.578;2023-07-28T13:22:45;4.32;;;1.95;;
58091;SDS011;43896;48.178;11.578;2023-07-28T13:25:10;4.82;;;2.10;;
58091;SDS011;43896;48.178;11.578;2023-07-28T13:27:35;4.20;;;2.30;;
58091;SDS011;43896;48.178;11.578;2023-07-28T13:30:04;4.32;;;2.08;;
58091;SDS011;43896;48.178;11.578;2023-07-28T13:32:40;4.32;;;2.13;;
58091;SDS011;43896;48.178;11.578;2023-07-28T13:35:20;5.63;;;2.20;;
58091;SDS011;43896;48.178;11.578;2023-07-28T13:37:45;4.15;;;2.03;;
58091;SDS011;43896;48.178;11.578;2023-07-28T13:40:11;4.53;;;2.17;;
58091;SDS011;43896;48.178;11.578;2023-07-28T13:42:36;5.32;;;2.10;;
58091;SDS011;43896;48.178;11.578;2023-07-28T13:45:02;3.78;;;2.10;;
58091;SDS011;43896;48.178;11.578;2023-07-28T13:47:27;5.05;;;2.30;;
58091;SDS011;43896;48.178;11.578;2023-07-28T13:49:52;4.63;;;2.20;;
58091;SDS011;43896;48.178;11.578;2023-07-28T13:52:18;4.85;;;2.15;;
58091;SDS011;43896;48.178;11.578;2023-07-28T13:54:43;3.80;;;2.17;;
58091;SDS011;43896;48.178;11.578;2023-07-28T13:57:09;4.30;;;2.22;;
58091;SDS011;43896;48.178;11.578;2023-07-28T13:59:36;4.63;;;2.22;;
58091;SDS011;43896;48.178;11.578;2023-07-28T14:02:01;4.95;;;2.20;;
58091;SDS011;43896;48.178;11.578;2023-07-28T14:04:26;3.53;;;1.80;;
58091;SDS011;43896;48.178;11.578;2023-07-28T14:06:52;4.38;;;1.90;;
58091;SDS011;43896;48.178;11.578;2023-07-28T14:09:17;5.43;;;1.80;;
58091;SDS011;43896;48.178;11.578;2023-07-28T14:11:42;3.70;;;1.85;;
58091;SDS011;43896;48.178;11.578;2023-07-28T14:14:08;4.03;;;1.90;;
58091;SDS011;43896;48.178;11.578;2023-07-28T14:16:35;4.35;;;2.10;;
58091;SDS011;43896;48.178;11.578;2023-07-28T14:19:00;3.92;;;2.03;;
58091;SDS011;43896;48.178;11.578;2023-07-28T14:21:26;4.38;;;2.13;;
58091;SDS011;43896;48.178;11.578;2023-07-28T14:23:52;4.60;;;1.90;;
58091;SDS011;43896;48.178;11.578;2023-07-28T14:26:17;3.80;;;2.03;;
58091;SDS011;43896;48.178;11.578;2023-07-28T14:28:42;4.32;;;2.00;;
58091;SDS011;43896;48.178;11.578;2023-07-28T14:31:08;5.15;;;2.08;;
58091;SDS011;43896;48.178;11.578;2023-07-28T14:33:33;3.80;;;2.08;;
58091;SDS011;43896;48.178;11.578;2023-07-28T14:35:58;6.43;;;2.20;;
58091;SDS011;43896;48.178;11.578;2023-07-28T14:38:24;4.75;;;2.17;;
58091;SDS011;43896;48.178;11.578;2023-07-28T14:40:49;5.72;;;2.65;;
58091;SDS011;43896;48.178;11.578;2023-07-28T14:43:17;6.10;;;2.50;;
58091;SDS011;43896;48.178;11.578;2023-07-28T14:45:42;5.45;;;2.42;;
58091;SDS011;43896;48.178;11.578;2023-07-28T14:48:08;4.57;;;2.33;;
58091;SDS011;43896;48.178;11.578;2023-07-28T14:50:33;5.63;;;2.78;;